createdAt,value
2019-04-11T00:00:01.773Z,56.78
2019-04-11T00:01:01.753Z,57.92
2019-04-11T00:02:02.559Z,56.97
2019-04-11T00:03:01.515Z,57.45
2019-04-11T00:04:01.900Z,57.54
2019-04-11T00:05:02.339Z,57.64
2019-04-11T00:06:01.423Z,57.54
2019-04-11T00:07:01.188Z,57.73
2019-04-11T00:08:01.833Z,57.16
2019-04-11T00:09:01.015Z,57.45
2019-04-11T00:10:00.936Z,57.64
2019-04-11T00:11:01.765Z,58.30
2019-04-11T00:12:01.985Z,58.02
2019-04-11T00:13:01.195Z,57.82
2019-04-11T00:14:00.604Z,58.02
2019-04-11T00:15:00.519Z,57.82
2019-04-11T00:16:01.305Z,57.54
2019-04-11T00:17:01.561Z,58.11
2019-04-11T00:18:00.658Z,57.92
2019-04-11T00:19:00.201Z,57.92
2019-04-11T00:20:00.107Z,58.11
2019-04-11T00:21:00.315Z,58.21
2019-04-11T00:21:59.970Z,58.21
2019-04-11T00:22:59.856Z,57.92
2019-04-11T00:24:00.736Z,57.82
2019-04-11T00:24:59.691Z,57.54
2019-04-11T00:26:00.057Z,57.54
2019-04-11T00:27:00.364Z,57.54
2019-04-11T00:27:59.445Z,57.54
2019-04-11T00:28:59.364Z,57.82
2019-04-11T00:29:59.702Z,57.35
2019-04-11T00:30:59.195Z,57.73
2019-04-11T00:31:59.116Z,58.02
2019-04-11T00:33:00.095Z,57.82
2019-04-11T00:33:58.950Z,57.92
2019-04-11T00:34:59.424Z,57.73
2019-04-11T00:35:59.815Z,57.35
2019-04-11T00:36:58.912Z,58.02
2019-04-11T00:37:59.316Z,58.02
2019-04-11T00:38:59.360Z,57.73
2019-04-11T00:39:59.601Z,57.92
2019-04-11T00:40:59.618Z,57.54
2019-04-11T00:41:58.691Z,57.35
2019-04-11T00:42:58.915Z,57.64
2019-04-11T00:43:58.680Z,57.92
2019-04-11T00:44:59.026Z,57.73
2019-04-11T00:45:58.202Z,57.64
2019-04-11T00:46:58.510Z,57.92
2019-04-11T00:47:58.143Z,57.73
2019-04-11T00:48:57.844Z,57.92
2019-04-11T00:49:58.806Z,57.89
2019-04-11T00:50:57.576Z,58.11
2019-04-11T00:51:58.945Z,57.60
2019-04-11T00:52:58.008Z,57.82
2019-04-11T00:53:58.296Z,57.80
2019-04-11T00:54:57.425Z,57.89
2019-04-11T00:55:57.125Z,58.08
2019-04-11T00:56:57.047Z,58.08
2019-04-11T00:57:57.130Z,58.08
2019-04-11T00:58:56.876Z,58.08
2019-04-11T00:59:56.801Z,57.99
2019-04-11T01:00:57.547Z,58.08
2019-04-11T01:01:56.863Z,58.08
2019-04-11T01:02:56.547Z,58.75
2019-04-11T01:03:56.463Z,58.18
2019-04-11T01:04:57.103Z,58.08
2019-04-11T01:05:56.684Z,58.18
2019-04-11T01:06:57.163Z,58.65
2019-04-11T01:07:57.696Z,58.37
2019-04-11T01:08:56.052Z,59.23
2019-04-11T01:09:56.877Z,59.32
2019-04-11T01:10:57.383Z,58.65
2019-04-11T01:11:56.333Z,58.84
2019-04-11T01:12:56.665Z,58.75
2019-04-11T01:13:55.836Z,59.32
2019-04-11T01:14:55.559Z,59.23
2019-04-11T01:15:56.501Z,58.37
2019-04-11T01:16:55.384Z,59.03
2019-04-11T01:17:55.958Z,58.94
2019-04-11T01:18:55.238Z,58.65
2019-04-11T01:19:55.335Z,58.47
2019-04-11T01:20:55.692Z,58.75
2019-04-11T01:21:55.057Z,58.56
2019-04-11T01:22:54.895Z,58.65
2019-04-11T01:23:55.437Z,58.37
2019-04-11T01:24:55.703Z,59.23
2019-04-11T01:25:54.919Z,58.37
2019-04-11T01:26:54.563Z,58.75
2019-04-11T01:27:54.481Z,58.08
2019-04-11T01:28:55.335Z,58.28
2019-04-11T01:29:54.307Z,58.75
2019-04-11T01:30:55.428Z,59.03
2019-04-11T01:31:54.149Z,59.51
2019-04-11T01:32:54.878Z,59.42
2019-04-11T01:33:53.973Z,58.84
2019-04-11T01:34:55.016Z,59.80
2019-04-11T01:35:53.812Z,59.80
2019-04-11T01:36:53.734Z,59.23
2019-04-11T01:37:53.642Z,58.84
2019-04-11T01:38:54.712Z,58.75
2019-04-11T01:39:53.702Z,59.03
2019-04-11T01:40:54.054Z,58.47
2019-04-11T01:41:53.312Z,58.56
2019-04-11T01:42:53.376Z,58.18
2019-04-11T01:44:00.214Z,58.56
2019-04-11T01:44:53.061Z,59.42
2019-04-11T01:45:53.800Z,59.51
2019-04-11T01:46:54.103Z,58.84
2019-04-11T01:47:53.276Z,59.13
2019-04-11T01:48:52.737Z,58.47
2019-04-11T01:49:52.680Z,59.03
2019-04-11T01:50:53.543Z,58.94
2019-04-11T01:51:52.487Z,59.03
2019-04-11T01:52:52.990Z,58.56
2019-04-11T01:53:52.312Z,58.75
2019-04-11T01:54:52.236Z,59.32
2019-04-11T01:55:52.565Z,59.61
2019-04-11T01:56:52.066Z,59.70
2019-04-11T01:57:52.000Z,59.70
2019-04-11T01:58:53.028Z,59.70
2019-04-11T01:59:51.824Z,59.58
2019-04-11T02:00:52.547Z,59.67
2019-04-11T02:01:52.614Z,59.20
2019-04-11T02:02:52.824Z,59.39
2019-04-11T02:03:51.754Z,59.13
2019-04-11T02:04:52.293Z,59.23
2019-04-11T02:05:51.584Z,59.23
2019-04-11T02:06:51.237Z,59.67
2019-04-11T02:07:51.154Z,59.01
2019-04-11T02:08:51.386Z,59.48
2019-04-11T02:09:50.986Z,59.20
2019-04-11T02:10:50.909Z,59.39
2019-04-11T02:11:51.944Z,59.29
2019-04-11T02:12:51.106Z,59.67
2019-04-11T02:13:50.660Z,59.20
2019-04-11T02:14:50.568Z,59.58
2019-04-11T02:15:50.496Z,59.10
2019-04-11T02:16:52.030Z,59.77
2019-04-11T02:17:50.932Z,59.48
2019-04-11T02:18:50.238Z,59.20
2019-04-11T02:19:50.301Z,59.77
2019-04-11T02:20:50.071Z,60.27
2019-04-11T02:21:49.987Z,59.77
2019-04-11T02:22:50.787Z,59.96
2019-04-11T02:23:51.032Z,59.67
2019-04-11T02:24:50.147Z,59.96
2019-04-11T02:25:49.658Z,59.89
2019-04-11T02:26:50.356Z,59.51
2019-04-11T02:27:50.505Z,58.91
2019-04-11T02:28:49.411Z,59.03
2019-04-11T02:29:49.325Z,58.81
2019-04-11T02:30:51.004Z,59.10
2019-04-11T02:31:50.613Z,59.61
2019-04-11T02:32:49.820Z,59.67
2019-04-11T02:33:49.422Z,60.27
2019-04-11T02:34:50.735Z,59.67
2019-04-11T02:35:49.447Z,59.29
2019-04-11T02:36:49.130Z,59.20
2019-04-11T02:37:51.780Z,59.77
2019-04-11T02:38:54.167Z,59.58
2019-04-11T02:39:49.372Z,59.67
2019-04-11T02:40:49.861Z,60.24
2019-04-11T02:41:48.328Z,59.86
2019-04-11T02:42:49.722Z,59.96
2019-04-11T02:43:49.005Z,59.86
2019-04-11T02:45:06.376Z,59.10
2019-04-11T02:45:58.270Z,59.77
2019-04-11T02:46:58.033Z,59.99
2019-04-11T02:47:50.735Z,59.67
2019-04-11T02:48:47.749Z,60.05
2019-04-11T02:49:47.850Z,60.15
2019-04-11T02:50:48.029Z,60.24
2019-04-11T02:51:49.363Z,60.15
2019-04-11T02:52:47.639Z,60.15
2019-04-11T02:53:47.427Z,59.39
2019-04-11T02:54:47.426Z,60.24
2019-04-11T02:55:47.451Z,59.96
2019-04-11T02:56:48.858Z,60.05
2019-04-11T02:57:48.322Z,60.24
2019-04-11T02:58:48.159Z,59.96
2019-04-11T02:59:48.912Z,59.67
2019-04-11T03:00:46.970Z,59.20
2019-04-11T03:01:48.441Z,59.51
2019-04-11T03:02:47.919Z,59.86
2019-04-11T03:03:47.447Z,59.70
2019-04-11T03:04:47.949Z,59.58
2019-04-11T03:05:47.003Z,60.15
2019-04-11T03:06:47.795Z,59.67
2019-04-11T03:07:47.624Z,60.15
2019-04-11T03:08:46.510Z,60.05
2019-04-11T03:09:48.586Z,60.53
2019-04-11T03:10:46.213Z,60.15
2019-04-11T03:11:47.243Z,60.24
2019-04-11T03:12:47.584Z,60.91
2019-04-11T03:13:46.492Z,60.53
2019-04-11T03:15:02.753Z,60.63
2019-04-11T03:16:02.158Z,61.00
2019-04-11T03:16:56.662Z,60.15
2019-04-11T03:17:47.988Z,60.44
2019-04-11T03:18:54.870Z,60.91
2019-04-11T03:19:59.323Z,60.44
2019-04-11T03:20:49.672Z,60.34
2019-04-11T03:21:46.966Z,60.53
2019-04-11T03:22:48.926Z,60.53
2019-04-11T03:23:44.827Z,61.10
2019-04-11T03:24:44.750Z,60.72
2019-04-11T03:25:45.001Z,60.72
2019-04-11T03:26:45.767Z,60.24
2019-04-11T03:27:45.256Z,60.53
2019-04-11T03:28:47.442Z,60.63
2019-04-11T03:29:45.251Z,61.19
2019-04-11T03:31:09.384Z,60.72
2019-04-11T03:32:33.655Z,60.44
2019-04-11T03:34:31.439Z,60.24
2019-04-11T03:35:51.726Z,60.53
2019-04-11T03:36:38.077Z,60.82
2019-04-11T03:37:21.105Z,60.05
2019-04-11T03:38:03.810Z,60.24
2019-04-11T03:39:07.669Z,60.72
2019-04-11T03:40:02.434Z,60.34
2019-04-11T03:41:00.579Z,60.82
2019-04-11T03:41:59.896Z,61.00
2019-04-11T03:42:59.471Z,60.15
2019-04-11T03:43:54.088Z,60.72
2019-04-11T03:44:47.672Z,61.29
2019-04-11T03:46:01.438Z,61.29
2019-04-11T03:47:01.470Z,61.10
2019-04-11T03:47:59.472Z,61.00
2019-04-11T03:48:59.055Z,61.00
2019-04-11T03:49:50.995Z,61.67
2019-04-11T03:50:43.113Z,61.38
2019-04-11T03:51:43.667Z,61.48
2019-04-11T03:52:43.032Z,61.58
2019-04-11T03:53:43.183Z,61.19
2019-04-11T03:54:42.691Z,61.00
2019-04-11T03:55:43.398Z,61.10
2019-04-11T03:56:43.293Z,61.10
2019-04-11T03:57:42.200Z,61.00
2019-04-11T03:58:43.592Z,61.77
2019-04-11T03:59:41.821Z,61.19
2019-04-11T04:00:44.391Z,60.91
2019-04-11T04:01:42.430Z,61.10
2019-04-11T04:02:41.586Z,61.67
2019-04-11T04:03:42.550Z,61.19
2019-04-11T04:04:41.556Z,61.48
2019-04-11T04:05:42.292Z,61.86
2019-04-11T04:06:41.521Z,61.86
2019-04-11T04:07:41.164Z,61.19
2019-04-11T04:08:42.359Z,61.10
2019-04-11T04:09:41.852Z,60.97
2019-04-11T04:10:41.656Z,62.12
2019-04-11T04:11:41.004Z,61.77
2019-04-11T04:12:40.735Z,62.49
2019-04-11T04:13:40.653Z,62.78
2019-04-11T04:14:42.874Z,62.69
2019-04-11T04:15:54.093Z,62.78
2019-04-11T04:16:45.607Z,62.02
2019-04-11T04:17:41.326Z,62.21
2019-04-11T04:18:40.412Z,62.40
2019-04-11T04:19:40.252Z,62.88
2019-04-11T04:20:41.819Z,62.49
2019-04-11T04:21:40.761Z,62.69
2019-04-11T04:22:41.901Z,62.59
2019-04-11T04:23:40.886Z,62.30
2019-04-11T04:24:40.802Z,62.02
2019-04-11T04:25:42.748Z,62.02
2019-04-11T04:26:41.056Z,62.69
2019-04-11T04:27:41.034Z,61.93
2019-04-11T04:28:40.809Z,62.30
2019-04-11T04:29:41.124Z,62.30
2019-04-11T04:30:41.037Z,62.30
2019-04-11T04:31:40.566Z,62.02
2019-04-11T04:32:40.477Z,62.02
2019-04-11T04:33:40.066Z,62.12
2019-04-11T04:34:40.170Z,61.83
2019-04-11T04:35:40.290Z,61.83
2019-04-11T04:36:40.191Z,61.83
2019-04-11T04:37:38.918Z,62.30
2019-04-11T04:38:39.548Z,62.21
2019-04-11T04:39:39.751Z,62.59
2019-04-11T04:40:51.187Z,62.40
2019-04-11T04:41:45.757Z,62.59
2019-04-11T04:42:44.502Z,62.69
2019-04-11T04:43:38.843Z,62.97
2019-04-11T04:44:38.228Z,63.26
2019-04-11T04:46:00.227Z,62.69
2019-04-11T04:46:52.847Z,63.26
2019-04-11T04:47:46.205Z,62.49
2019-04-11T04:48:38.127Z,62.78
2019-04-11T04:49:38.844Z,62.88
2019-04-11T04:50:39.225Z,62.59
2019-04-11T04:51:39.037Z,63.26
2019-04-11T04:52:38.198Z,63.35
2019-04-11T04:53:38.900Z,62.94
2019-04-11T04:54:38.643Z,63.32
2019-04-11T04:55:37.136Z,64.27
2019-04-11T04:56:39.069Z,64.21
2019-04-11T04:57:37.612Z,64.02
2019-04-11T04:58:37.867Z,64.40
2019-04-11T04:59:38.421Z,64.21
2019-04-11T05:00:37.633Z,63.54
2019-04-11T05:03:09.761Z,64.40
2019-04-11T05:04:09.186Z,64.50
2019-04-11T05:06:12.020Z,64.59
2019-04-11T05:07:11.800Z,64.40
2019-04-11T05:08:11.913Z,64.02
2019-04-11T05:09:12.830Z,64.31
2019-04-11T05:10:11.503Z,63.45
2019-04-11T05:11:11.422Z,63.54
2019-04-11T05:12:11.938Z,63.35
2019-04-11T05:13:11.914Z,63.73
2019-04-11T05:14:12.426Z,63.64
2019-04-11T05:15:12.200Z,63.45
2019-04-11T05:16:17.326Z,64.11
2019-04-11T05:17:10.912Z,63.26
2019-04-11T05:18:11.464Z,63.17
2019-04-11T05:19:10.746Z,63.54
2019-04-11T05:20:11.863Z,63.26
2019-04-11T05:21:10.775Z,63.17
2019-04-11T05:22:10.616Z,62.97
2019-04-11T05:23:10.411Z,63.26
2019-04-11T05:24:10.402Z,62.59
2019-04-11T05:25:10.624Z,62.49
2019-04-11T05:26:10.952Z,62.78
2019-04-11T05:27:10.449Z,62.59
2019-04-11T05:28:09.990Z,62.49
2019-04-11T05:29:11.127Z,63.17
2019-04-11T05:30:09.823Z,63.35
2019-04-11T05:31:10.164Z,62.88
2019-04-11T05:32:09.655Z,63.54
2019-04-11T05:33:09.625Z,63.54
2019-04-11T05:34:09.934Z,63.23
2019-04-11T05:35:09.415Z,63.64
2019-04-11T05:36:09.315Z,63.35
2019-04-11T05:37:09.230Z,63.54
2019-04-11T05:38:10.346Z,63.17
2019-04-11T05:39:09.067Z,63.07
2019-04-11T05:40:09.277Z,63.45
2019-04-11T05:41:12.094Z,63.54
2019-04-11T05:42:09.180Z,63.54
2019-04-11T05:43:08.748Z,63.64
2019-04-11T05:44:10.762Z,63.26
2019-04-11T05:45:16.958Z,63.17
2019-04-11T05:46:25.043Z,63.26
2019-04-11T05:47:09.026Z,63.35
2019-04-11T05:48:09.320Z,63.26
2019-04-11T05:49:09.226Z,62.88
2019-04-11T05:50:11.632Z,63.26
2019-04-11T05:51:08.869Z,63.45
2019-04-11T05:52:08.157Z,62.97
2019-04-11T05:53:07.941Z,63.17
2019-04-11T05:54:09.281Z,63.07
2019-04-11T05:55:10.594Z,63.07
2019-04-11T05:56:07.640Z,63.17
2019-04-11T05:57:07.551Z,62.97
2019-04-11T05:58:11.412Z,63.35
2019-04-11T05:59:07.454Z,62.97
2019-04-11T06:00:07.533Z,62.88
2019-04-11T06:01:09.950Z,62.78
2019-04-11T06:02:07.805Z,62.88
2019-04-11T06:03:07.829Z,63.23
2019-04-11T06:04:07.884Z,62.97
2019-04-11T06:05:06.930Z,63.04
2019-04-11T06:06:06.800Z,63.13
2019-04-11T06:07:08.432Z,63.54
2019-04-11T06:08:06.742Z,62.97
2019-04-11T06:09:09.259Z,62.97
2019-04-11T06:10:09.469Z,63.54
2019-04-11T06:11:06.491Z,63.26
2019-04-11T06:12:07.370Z,63.17
2019-04-11T06:13:06.213Z,63.35
2019-04-11T06:14:07.349Z,62.97
2019-04-11T06:15:06.071Z,63.17
2019-04-11T06:16:06.363Z,63.64
2019-04-11T06:17:07.184Z,63.35
2019-04-11T06:18:06.938Z,63.64
2019-04-11T06:19:06.054Z,63.54
2019-04-11T06:20:06.156Z,64.02
2019-04-11T06:21:05.540Z,64.31
2019-04-11T06:22:06.560Z,64.02
2019-04-11T06:23:06.559Z,63.45
2019-04-11T06:24:05.291Z,63.35
2019-04-11T06:25:06.176Z,63.35
2019-04-11T06:26:06.744Z,63.54
2019-04-11T06:27:06.144Z,63.45
2019-04-11T06:28:06.111Z,63.35
2019-04-11T06:29:14.653Z,63.54
2019-04-11T06:30:05.499Z,63.64
2019-04-11T06:31:05.959Z,63.45
2019-04-11T06:32:05.657Z,63.45
2019-04-11T06:33:04.657Z,63.54
2019-04-11T06:34:05.018Z,63.35
2019-04-11T06:35:04.369Z,63.64
2019-04-11T06:36:04.325Z,63.64
2019-04-11T06:37:05.504Z,63.35
2019-04-11T06:38:04.117Z,63.45
2019-04-11T06:39:05.056Z,63.17
2019-04-11T06:40:04.204Z,62.97
2019-04-11T06:41:04.099Z,62.78
2019-04-11T06:42:04.826Z,62.88
2019-04-11T06:43:03.704Z,63.73
2019-04-11T06:44:04.710Z,63.45
2019-04-11T06:45:04.067Z,63.64
2019-04-11T06:46:03.451Z,63.35
2019-04-11T06:47:03.784Z,63.17
2019-04-11T06:48:03.282Z,62.97
2019-04-11T06:49:04.381Z,63.54
2019-04-11T06:50:03.119Z,63.35
2019-04-11T06:51:03.875Z,63.64
2019-04-11T06:52:02.946Z,63.64
2019-04-11T06:53:02.864Z,63.64
2019-04-11T06:54:02.779Z,63.73
2019-04-11T06:55:02.798Z,63.64
2019-04-11T06:56:03.598Z,63.45
2019-04-11T06:57:02.525Z,62.69
2019-04-11T06:58:02.703Z,63.45
2019-04-11T06:59:02.360Z,63.35
2019-04-11T07:00:02.972Z,63.35
2019-04-11T07:01:03.478Z,62.97
2019-04-11T07:02:08.832Z,63.35
2019-04-11T07:03:03.413Z,63.45
2019-04-11T07:04:03.037Z,63.26
2019-04-11T07:05:02.524Z,63.54
2019-04-11T07:06:02.894Z,63.73
2019-04-11T07:07:02.298Z,63.64
2019-04-11T07:08:02.090Z,62.97
2019-04-11T07:09:01.529Z,63.45
2019-04-11T07:10:02.124Z,62.97
2019-04-11T07:11:01.356Z,63.26
2019-04-11T07:12:01.373Z,63.17
2019-04-11T07:13:01.191Z,63.07
2019-04-11T07:14:01.897Z,63.07
2019-04-11T07:15:02.439Z,63.17
2019-04-11T07:16:00.941Z,63.35
2019-04-11T07:17:05.699Z,63.54
2019-04-11T07:18:01.104Z,63.26
2019-04-11T07:19:00.718Z,63.35
2019-04-11T07:20:00.611Z,63.45
2019-04-11T07:21:00.690Z,63.45
2019-04-11T07:22:00.440Z,63.45
2019-04-11T07:23:01.506Z,63.45
2019-04-11T07:24:00.269Z,63.45
2019-04-11T07:25:00.189Z,63.64
2019-04-11T07:26:00.371Z,62.97
2019-04-11T07:27:00.940Z,63.26
2019-04-11T07:27:59.945Z,63.73
2019-04-11T07:29:00.674Z,63.17
2019-04-11T07:29:59.776Z,63.45
2019-04-11T07:31:00.361Z,63.54
2019-04-11T07:32:00.916Z,63.64
2019-04-11T07:32:59.525Z,63.45
2019-04-11T07:34:00.746Z,63.48
2019-04-11T07:35:00.040Z,63.35
2019-04-11T07:35:59.824Z,63.54
2019-04-11T07:37:00.256Z,63.17
2019-04-11T07:37:59.109Z,63.07
2019-04-11T07:38:59.023Z,63.64
2019-04-11T07:39:58.942Z,63.45
2019-04-11T07:40:59.014Z,63.07
2019-04-11T07:42:00.188Z,63.73
2019-04-11T07:43:05.101Z,63.26
2019-04-11T07:43:58.610Z,63.54
2019-04-11T07:44:59.650Z,63.45
2019-04-11T07:45:58.443Z,63.45
2019-04-11T07:46:58.361Z,63.26
2019-04-11T07:47:58.396Z,63.17
2019-04-11T07:48:59.314Z,63.35
2019-04-11T07:49:58.231Z,63.67
2019-04-11T07:50:58.030Z,63.35
2019-04-11T07:51:58.201Z,63.54
2019-04-11T07:52:58.265Z,63.35
2019-04-11T07:53:57.783Z,63.57
2019-04-11T07:54:57.696Z,63.57
2019-04-11T07:56:00.527Z,63.48
2019-04-11T07:56:58.456Z,63.48
2019-04-11T07:57:57.457Z,64.34
2019-04-11T07:58:58.373Z,64.15
2019-04-11T07:59:57.859Z,64.53
2019-04-11T08:00:57.193Z,64.43
2019-04-11T08:01:57.114Z,64.24
2019-04-11T08:02:57.436Z,64.15
2019-04-11T08:03:57.924Z,64.05
2019-04-11T08:04:57.664Z,64.34
2019-04-11T08:05:56.782Z,64.24
2019-04-11T08:06:56.693Z,64.15
2019-04-11T08:07:57.338Z,63.57
2019-04-11T08:08:56.529Z,63.20
2019-04-11T08:09:57.143Z,63.96
2019-04-11T08:10:56.366Z,63.48
2019-04-11T08:11:56.288Z,63.48
2019-04-11T08:12:56.200Z,63.29
2019-04-11T08:13:56.669Z,63.29
2019-04-11T08:14:57.120Z,63.39
2019-04-11T08:15:55.949Z,63.57
2019-04-11T08:16:55.868Z,63.57
2019-04-11T08:17:56.335Z,63.67
2019-04-11T08:18:55.704Z,63.29
2019-04-11T08:19:55.624Z,63.29
2019-04-11T08:20:55.535Z,63.29
2019-04-11T08:21:56.647Z,63.39
2019-04-11T08:22:55.371Z,63.48
2019-04-11T08:23:56.145Z,63.67
2019-04-11T08:24:55.207Z,63.39
2019-04-11T08:25:55.791Z,63.48
2019-04-11T08:26:55.424Z,63.86
2019-04-11T08:28:00.601Z,63.48
2019-04-11T08:29:05.059Z,63.29
2019-04-11T08:29:54.826Z,63.01
2019-04-11T08:30:55.211Z,63.20
2019-04-11T08:31:56.184Z,63.39
2019-04-11T08:32:54.540Z,63.57
2019-04-11T08:33:55.114Z,62.81
2019-04-11T08:34:55.422Z,62.91
2019-04-11T08:35:55.604Z,62.81
2019-04-11T08:36:54.900Z,62.72
2019-04-11T08:37:54.133Z,63.29
2019-04-11T08:38:54.050Z,63.01
2019-04-11T08:39:53.967Z,63.10
2019-04-11T08:40:53.882Z,63.48
2019-04-11T08:41:53.808Z,63.39
2019-04-11T08:42:54.812Z,63.48
2019-04-11T08:43:53.637Z,63.48
2019-04-11T08:44:54.222Z,63.76
2019-04-11T08:45:54.122Z,63.48
2019-04-11T08:46:53.938Z,63.57
2019-04-11T08:47:57.321Z,63.48
2019-04-11T08:48:53.223Z,63.23
2019-04-11T08:49:54.145Z,63.48
2019-04-11T08:50:53.058Z,63.51
2019-04-11T08:51:53.764Z,63.76
2019-04-11T08:52:54.130Z,63.57
2019-04-11T08:53:53.151Z,63.32
2019-04-11T08:54:53.521Z,63.29
2019-04-11T08:55:56.215Z,63.04
2019-04-11T08:56:53.611Z,63.67
2019-04-11T08:57:52.478Z,63.51
2019-04-11T08:58:53.091Z,63.57
2019-04-11T08:59:53.475Z,63.57
2019-04-11T09:00:53.082Z,63.57
2019-04-11T09:01:52.149Z,63.32
2019-04-11T09:02:53.342Z,62.72
2019-04-11T09:04:02.098Z,63.29
2019-04-11T09:05:03.204Z,63.39
2019-04-11T09:05:51.819Z,63.60
2019-04-11T09:06:52.590Z,63.60
2019-04-11T09:07:52.040Z,63.99
2019-04-11T09:08:51.574Z,64.37
2019-04-11T09:09:51.599Z,63.60
2019-04-11T09:10:52.532Z,63.23
2019-04-11T09:11:51.326Z,63.04
2019-04-11T09:12:51.248Z,63.13
2019-04-11T09:13:51.453Z,63.60
2019-04-11T09:14:51.079Z,63.70
2019-04-11T09:15:51.017Z,63.99
2019-04-11T09:16:52.027Z,63.60
2019-04-11T09:17:58.988Z,63.70
2019-04-11T09:18:50.752Z,63.80
2019-04-11T09:19:51.443Z,63.51
2019-04-11T09:20:51.727Z,63.60
2019-04-11T09:21:50.804Z,63.70
2019-04-11T09:22:50.425Z,62.75
2019-04-11T09:23:50.340Z,62.75
2019-04-11T09:24:50.570Z,62.85
2019-04-11T09:25:52.206Z,62.65
2019-04-11T09:26:50.093Z,63.42
2019-04-11T09:27:51.068Z,63.13
2019-04-11T09:28:49.932Z,62.97
2019-04-11T09:29:50.365Z,62.68
2019-04-11T09:30:49.766Z,63.26
2019-04-11T09:31:49.686Z,63.07
2019-04-11T09:32:50.662Z,63.35
2019-04-11T09:33:49.518Z,63.35
2019-04-11T09:34:50.147Z,63.73
2019-04-11T09:35:49.363Z,63.54
2019-04-11T09:36:49.387Z,63.54
2019-04-11T09:37:49.659Z,62.78
2019-04-11T09:38:49.115Z,61.45
2019-04-11T09:39:49.033Z,61.16
2019-04-11T09:40:50.021Z,61.45
2019-04-11T09:41:49.023Z,61.16
2019-04-11T09:42:48.788Z,61.25
2019-04-11T09:43:48.705Z,61.35
2019-04-11T09:44:49.102Z,61.73
2019-04-11T09:45:48.545Z,62.30
2019-04-11T09:46:48.871Z,62.02
2019-04-11T09:47:48.382Z,61.35
2019-04-11T09:48:48.446Z,61.16
2019-04-11T09:49:48.454Z,61.25
2019-04-11T09:50:48.973Z,61.45
2019-04-11T09:51:48.060Z,60.88
2019-04-11T09:52:47.981Z,60.78
2019-04-11T09:53:47.898Z,61.83
2019-04-11T09:54:48.484Z,61.73
2019-04-11T09:55:47.921Z,61.96
2019-04-11T09:56:47.658Z,61.57
2019-04-11T09:57:48.256Z,61.67
2019-04-11T09:58:47.661Z,62.43
2019-04-11T09:59:47.723Z,62.24
2019-04-11T10:00:47.455Z,62.91
2019-04-11T10:01:47.416Z,62.34
2019-04-11T10:02:48.255Z,62.52
2019-04-11T10:03:47.105Z,61.67
2019-04-11T10:04:48.084Z,61.48
2019-04-11T10:05:48.293Z,60.52
2019-04-11T10:06:46.852Z,60.52
2019-04-11T10:07:47.909Z,60.91
2019-04-11T10:08:46.930Z,61.19
2019-04-11T10:09:46.613Z,61.29
2019-04-11T10:10:46.713Z,61.19
2019-04-11T10:11:46.450Z,61.10
2019-04-11T10:12:46.555Z,61.38
2019-04-11T10:13:46.286Z,60.91
2019-04-11T10:14:46.210Z,60.24
2019-04-11T10:15:47.252Z,60.33
2019-04-11T10:16:46.529Z,60.05
2019-04-11T10:17:46.412Z,60.43
2019-04-11T10:18:45.889Z,60.24
2019-04-11T10:19:46.431Z,61.10
2019-04-11T10:20:45.728Z,60.72
2019-04-11T10:21:45.764Z,59.86
2019-04-11T10:22:45.948Z,60.24
2019-04-11T10:23:45.486Z,60.05
2019-04-11T10:24:46.331Z,60.05
2019-04-11T10:25:45.591Z,60.05
2019-04-11T10:26:45.249Z,59.28
2019-04-11T10:27:45.169Z,59.57
2019-04-11T10:28:45.963Z,59.57
2019-04-11T10:29:45.031Z,59.19
2019-04-11T10:30:46.031Z,60.14
2019-04-11T10:31:44.845Z,60.36
2019-04-11T10:32:45.558Z,60.75
2019-04-11T10:33:44.923Z,60.17
2019-04-11T10:34:45.817Z,59.89
2019-04-11T10:35:44.521Z,60.84
2019-04-11T10:36:45.362Z,60.65
2019-04-11T10:37:44.374Z,60.08
2019-04-11T10:38:44.702Z,59.99
2019-04-11T10:39:44.203Z,60.08
2019-04-11T10:40:44.208Z,59.22
2019-04-11T10:41:44.211Z,59.31
2019-04-11T10:42:44.466Z,58.94
2019-04-11T10:43:44.657Z,59.51
2019-04-11T10:44:43.803Z,58.94
2019-04-11T10:45:44.803Z,59.12
2019-04-11T10:46:43.914Z,59.79
2019-04-11T10:47:43.565Z,60.36
2019-04-11T10:48:45.277Z,59.79
2019-04-11T10:49:44.188Z,59.79
2019-04-11T10:50:44.404Z,60.36
2019-04-11T10:51:43.244Z,60.36
2019-04-11T10:52:43.164Z,60.17
2019-04-11T10:53:43.677Z,60.27
2019-04-11T10:54:43.009Z,59.89
2019-04-11T10:55:44.024Z,59.70
2019-04-11T10:56:43.298Z,59.51
2019-04-11T10:57:42.771Z,59.51
2019-04-11T10:58:42.768Z,59.51
2019-04-11T10:59:42.928Z,59.79
2019-04-11T11:00:43.188Z,59.31
2019-04-11T11:01:42.444Z,59.22
2019-04-11T11:02:51.021Z,59.60
2019-04-11T11:04:46.693Z,59.89
2019-04-11T11:05:47.223Z,59.70
2019-04-11T11:07:51.058Z,59.70
2019-04-11T11:08:50.797Z,59.60
2019-04-11T11:10:57.778Z,59.60
2019-04-11T11:11:57.531Z,59.89
2019-04-11T11:13:50.993Z,59.60
2019-04-11T11:14:51.958Z,59.41
2019-04-11T11:15:51.651Z,59.12
2019-04-11T11:16:50.828Z,59.31
2019-04-11T11:18:21.707Z,59.22
2019-04-11T11:19:20.847Z,58.46
2019-04-11T11:20:04.089Z,59.22
2019-04-11T11:20:55.292Z,58.84
2019-04-11T11:21:51.273Z,59.41
2019-04-11T11:22:50.056Z,59.31
2019-04-11T11:23:50.765Z,58.46
2019-04-11T11:24:50.394Z,59.41
2019-04-11T11:25:51.563Z,59.51
2019-04-11T11:26:51.995Z,59.22
2019-04-11T11:27:50.294Z,59.12
2019-04-11T11:28:50.847Z,59.60
2019-04-11T11:29:49.501Z,59.22
2019-04-11T11:30:50.333Z,59.31
2019-04-11T11:31:49.347Z,59.51
2019-04-11T11:32:49.681Z,59.12
2019-04-11T11:33:49.182Z,59.12
2019-04-11T11:34:52.324Z,59.79
2019-04-11T11:35:50.014Z,60.08
2019-04-11T11:36:50.463Z,59.79
2019-04-11T11:37:49.303Z,59.41
2019-04-11T11:38:48.781Z,59.51
2019-04-11T11:39:49.123Z,59.22
2019-04-11T11:40:48.625Z,58.84
2019-04-11T11:41:48.936Z,59.03
2019-04-11T11:42:48.462Z,59.22
2019-04-11T11:43:49.542Z,59.12
2019-04-11T11:44:48.827Z,59.12
2019-04-11T11:45:51.858Z,58.94
2019-04-11T11:46:48.143Z,59.60
2019-04-11T11:47:49.037Z,58.26
2019-04-11T11:48:52.236Z,58.46
2019-04-11T11:49:55.579Z,58.65
2019-04-11T11:50:50.524Z,58.84
2019-04-11T11:51:47.831Z,58.94
2019-04-11T11:52:48.887Z,59.03
2019-04-11T11:53:47.586Z,59.22
2019-04-11T11:54:48.162Z,59.12
2019-04-11T11:55:47.423Z,59.41
2019-04-11T11:56:48.635Z,59.34
2019-04-11T11:57:47.264Z,58.97
2019-04-11T11:58:52.924Z,58.87
2019-04-11T11:59:48.307Z,59.06
2019-04-11T12:00:49.598Z,58.97
2019-04-11T12:01:49.712Z,59.25
2019-04-11T12:02:49.057Z,59.25
2019-04-11T12:03:46.801Z,58.39
2019-04-11T12:04:46.711Z,58.77
2019-04-11T12:05:49.077Z,58.01
2019-04-11T12:06:48.955Z,58.70
2019-04-11T12:07:47.324Z,58.42
2019-04-11T12:08:48.275Z,58.04
2019-04-11T12:09:46.722Z,58.80
2019-04-11T12:10:46.235Z,58.23
2019-04-11T12:11:46.384Z,58.23
2019-04-11T12:12:46.416Z,58.33
2019-04-11T12:13:47.338Z,57.85
2019-04-11T12:14:46.856Z,57.65
2019-04-11T12:15:45.842Z,57.56
2019-04-11T12:16:48.211Z,58.14
2019-04-11T12:17:46.930Z,58.33
2019-04-11T12:18:48.604Z,57.85
2019-04-11T12:19:52.963Z,57.85
2019-04-11T12:20:47.627Z,57.65
2019-04-11T12:21:48.572Z,57.56
2019-04-11T12:22:45.324Z,58.14
2019-04-11T12:23:55.560Z,58.29
2019-04-11T12:24:45.182Z,58.99
2019-04-11T12:25:45.201Z,58.61
2019-04-11T12:26:46.189Z,58.29
2019-04-11T12:27:45.724Z,57.72
2019-04-11T12:28:45.786Z,57.46
2019-04-11T12:29:47.930Z,57.85
2019-04-11T12:30:44.938Z,58.39
2019-04-11T12:31:44.586Z,58.23
2019-04-11T12:32:44.515Z,58.29
2019-04-11T12:33:45.444Z,57.94
2019-04-11T12:34:45.159Z,57.75
2019-04-11T12:35:44.419Z,57.92
2019-04-11T12:36:50.110Z,58.23
2019-04-11T12:37:45.358Z,58.23
2019-04-11T12:38:44.036Z,57.56
2019-04-11T12:39:43.958Z,56.89
2019-04-11T12:40:43.895Z,56.41
2019-04-11T12:41:43.802Z,56.06
2019-04-11T12:42:43.721Z,55.68
2019-04-11T12:43:43.646Z,55.40
2019-04-11T12:44:43.571Z,55.58
2019-04-11T12:45:43.491Z,55.40
2019-04-11T12:46:43.414Z,55.20
2019-04-11T12:47:43.338Z,54.63
2019-04-11T12:48:43.275Z,55.01
2019-04-11T12:49:52.441Z,54.82
2019-04-11T12:50:43.107Z,54.06
2019-04-11T12:51:43.060Z,54.63
2019-04-11T12:52:42.953Z,54.63
2019-04-11T12:53:42.874Z,54.94
2019-04-11T12:54:42.805Z,54.47
2019-04-11T12:55:42.720Z,54.11
2019-04-11T12:56:42.667Z,53.92
2019-04-11T12:57:42.603Z,53.56
2019-04-11T12:58:42.490Z,53.28